Erwinna, Pennsylvania
Current Conditions -  °F | °C
As of 3:54 AM on Thursday 23 Oct 2014 (Local Time) from KDYL Reporting Station
Overcast Overcast  
Wind Chill: 50°   Ceiling: 3000
Heat Index: 50°   Visibility: 10mi
Dew Point: 46°   Wind: 12mph
Humidity: 86%   Direction: 350°N
Pressure: 29.75"   Gusts: 20mph
Location:  40.5°N, 75.07°W
Report Text: KDYL 230754Z AUTO 35010G17KT 10SM BKN030 OVC038 10/08 A2975 RMK AO2 SLP075 T01000078 $
Loading
Personal Weather Stations






























Interactive Weather Map New forecast layout! Learn more

10-Day Weather Forecast

Advertisements
Track Severe Weather on mobile